Check out our new PWSWeather beta!
PWSweather.com
Personal Weather Stations
Station Observations
TENMILE2
Watts Bar Lake, Ten Mile, TN 37880

Watts Bar LakeTen Mile, TN 37880

Lat: 35.686, Lon: -84.7068

Elevation: 767

Station Type: Davis Vue

http://www.wattsbarweather.org

High Low Average
Temperature 58.7°F14.8°C 32.4°F0.2°C 48.9°F9.4°C
Dew Point 58.1°F14.5°C 28.5°F-1.9°C 44.6°F7.0°C
Winds 7.6 mph 12.2 kmh Calm Calm 2.0 mph SSW3.2 kmh SSW
Wind Gusts 16.5 mph26.6 kmh -- 8.0 mph12.9 kmh
Humidity 98% 68% 85%
Pressure 30.26 in1024.7 mb 29.71 in1006.1 mb -
Precipitation 0.48 in12.2 mm - -
Hour Temp Dew Point Humidity Winds Wind Gusts Pressure Precip Precip Rate Daily Precip Total
12:03 AM 58.0°F14.4°C 57.4°F14.1°C 98% 1.3 mph E2.1 kmh E 9.0 mph14.5 kmh 29.76 in1007.8 mb 0.10 in2.5 mm 2.00 in50.8 mm 0.01 in0.3 mm
12:08 AM 58.2°F14.6°C 57.6°F14.2°C 98% 1.5 mph E2.4 kmh E 9.0 mph14.5 kmh 29.76 in1007.8 mb 0.09 in2.3 mm 0.00 in0.0 mm 0.01 in0.3 mm
12:13 AM 58.1°F14.5°C 57.5°F14.2°C 98% Calm Calm 9.0 mph14.5 kmh 29.75 in1007.5 mb 0.09 in2.3 mm 0.00 in0.0 mm 0.01 in0.3 mm
12:18 AM 58.2°F14.6°C 57.6°F14.2°C 98% Calm Calm 9.0 mph14.5 kmh 29.75 in1007.5 mb 0.09 in2.3 mm 0.00 in0.0 mm 0.02 in0.5 mm
12:23 AM 58.2°F14.6°C 57.6°F14.2°C 98% 2.1 mph SE3.4 kmh SE 7.5 mph12.1 kmh 29.76 in1007.8 mb 0.10 in2.5 mm 0.12 in3.0 mm 0.03 in0.8 mm
12:28 AM 58.1°F14.5°C 57.5°F14.2°C 98% 1.3 mph E2.1 kmh E 7.5 mph12.1 kmh 29.75 in1007.5 mb 0.09 in2.3 mm 0.00 in0.0 mm 0.03 in0.8 mm
12:33 AM 58.2°F14.6°C 57.6°F14.2°C 98% 1.4 mph E2.3 kmh E 7.5 mph12.1 kmh 29.75 in1007.5 mb 0.09 in2.3 mm 0.00 in0.0 mm 0.04 in1.0 mm
12:38 AM 58.2°F14.6°C 57.6°F14.2°C 98% 1.5 mph E2.4 kmh E 7.5 mph12.1 kmh 29.76 in1007.8 mb 0.08 in2.0 mm 0.00 in0.0 mm 0.04 in1.0 mm
12:43 AM 58.3°F14.6°C 57.7°F14.3°C 98% 1.3 mph NE2.1 kmh NE 6.0 mph9.7 kmh 29.75 in1007.5 mb 0.08 in2.0 mm 0.00 in0.0 mm 0.06 in1.5 mm
12:48 AM 58.2°F14.6°C 57.6°F14.2°C 98% 2.1 mph ENE3.4 kmh ENE 6.0 mph9.7 kmh 29.76 in1007.8 mb 0.08 in2.0 mm 0.00 in0.0 mm 0.07 in1.8 mm
12:53 AM 58.4°F14.7°C 57.8°F14.3°C 98% 2.3 mph SE3.7 kmh SE 10.5 mph16.9 kmh 29.76 in1007.8 mb 0.10 in2.5 mm 0.24 in6.1 mm 0.09 in2.3 mm
12:58 AM 58.4°F14.7°C 57.8°F14.3°C 98% 1.7 mph S2.7 kmh S 10.5 mph16.9 kmh 29.75 in1007.5 mb 0.09 in2.3 mm 0.00 in0.0 mm 0.09 in2.3 mm
01:03 AM 58.3°F14.6°C 57.7°F14.3°C 98% 1.3 mph E2.1 kmh E 10.5 mph16.9 kmh 29.75 in1007.5 mb 0.09 in2.3 mm 0.00 in0.0 mm 0.10 in2.5 mm
01:08 AM 58.3°F14.6°C 57.7°F14.3°C 98% 2.4 mph S3.9 kmh S 10.5 mph16.9 kmh 29.75 in1007.5 mb 0.10 in2.5 mm 0.12 in3.0 mm 0.11 in2.8 mm
01:13 AM 58.4°F14.7°C 57.8°F14.3°C 98% 1.3 mph SE2.1 kmh SE 7.5 mph12.1 kmh 29.75 in1007.5 mb 0.10 in2.5 mm 0.00 in0.0 mm 0.11 in2.8 mm
01:18 AM 58.5°F14.7°C 57.9°F14.4°C 98% 2.1 mph SE3.4 kmh SE 7.5 mph12.1 kmh 29.75 in1007.5 mb 0.10 in2.5 mm 0.00 in0.0 mm 0.12 in3.0 mm
01:23 AM 58.5°F14.7°C 57.9°F14.4°C 98% 2.8 mph S4.5 kmh S 10.5 mph16.9 kmh 29.75 in1007.5 mb 0.09 in2.3 mm 0.00 in0.0 mm 0.12 in3.0 mm
01:28 AM 58.6°F14.8°C 58.0°F14.4°C 98% 1.5 mph S2.4 kmh S 10.5 mph16.9 kmh 29.74 in1007.1 mb 0.10 in2.5 mm 0.12 in3.0 mm 0.13 in3.3 mm
01:33 AM 58.6°F14.8°C 58.0°F14.4°C 98% 1.8 mph SSE2.9 kmh SSE 10.5 mph16.9 kmh 29.74 in1007.1 mb 0.10 in2.5 mm 0.00 in0.0 mm 0.14 in3.6 mm
01:38 AM 58.5°F14.7°C 57.9°F14.4°C 98% 2.5 mph E4.0 kmh E 10.5 mph16.9 kmh 29.74 in1007.1 mb 0.11 in2.8 mm 0.12 in3.0 mm 0.15 in3.8 mm
01:43 AM 58.4°F14.7°C 57.8°F14.3°C 98% 3.6 mph SSE5.8 kmh SSE 6.0 mph9.7 kmh 29.74 in1007.1 mb 0.10 in2.5 mm 0.00 in0.0 mm 0.15 in3.8 mm
01:48 AM 58.6°F14.8°C 58.0°F14.4°C 98% 1.7 mph WSW2.7 kmh WSW 6.0 mph9.7 kmh 29.74 in1007.1 mb 0.11 in2.8 mm 0.12 in3.0 mm 0.18 in4.6 mm
01:53 AM 58.6°F14.8°C 58.0°F14.4°C 98% 2.2 mph SSE3.5 kmh SSE 6.0 mph9.7 kmh 29.75 in1007.5 mb 0.10 in2.5 mm 0.00 in0.0 mm 0.19 in4.8 mm
01:58 AM 58.6°F14.8°C 58.0°F14.4°C 98% 1.3 mph ENE2.1 kmh ENE 7.5 mph12.1 kmh 29.75 in1007.5 mb 0.12 in3.0 mm 0.24 in6.1 mm 0.21 in5.3 mm
02:03 AM 58.6°F14.8°C 58.0°F14.4°C 98% 1.5 mph E2.4 kmh E 13.5 mph21.7 kmh 29.75 in1007.5 mb 0.13 in3.3 mm 0.01 in0.3 mm 0.23 in5.8 mm
02:08 AM 58.6°F14.8°C 58.0°F14.4°C 98% 2.0 mph S3.2 kmh S 13.5 mph21.7 kmh 29.74 in1007.1 mb 0.13 in3.3 mm 0.00 in0.0 mm 0.24 in6.1 mm
02:13 AM 58.6°F14.8°C 58.0°F14.4°C 98% 1.3 mph SE2.1 kmh SE 13.5 mph21.7 kmh 29.73 in1006.8 mb 0.15 in3.8 mm 0.24 in6.1 mm 0.26 in6.6 mm
02:18 AM 58.5°F14.7°C 57.9°F14.4°C 98% 1.9 mph SSE3.1 kmh SSE 13.5 mph21.7 kmh 29.74 in1007.1 mb 0.14 in3.6 mm 0.00 in0.0 mm 0.26 in6.6 mm
02:23 AM 58.4°F14.7°C 57.8°F14.3°C 98% 1.3 mph NE2.1 kmh NE 7.5 mph12.1 kmh 29.73 in1006.8 mb 0.15 in3.8 mm 0.12 in3.0 mm 0.27 in6.9 mm
02:28 AM 58.5°F14.7°C 57.9°F14.4°C 98% 1.9 mph SE3.1 kmh SE 7.5 mph12.1 kmh 29.74 in1007.1 mb 0.15 in3.8 mm 0.00 in0.0 mm 0.29 in7.4 mm
02:33 AM 58.6°F14.8°C 58.0°F14.4°C 98% 1.9 mph S3.1 kmh S 7.5 mph12.1 kmh 29.73 in1006.8 mb 0.14 in3.6 mm 0.00 in0.0 mm 0.29 in7.4 mm
02:38 AM 58.5°F14.7°C 57.9°F14.4°C 98% 1.6 mph ESE2.6 kmh ESE 7.5 mph12.1 kmh 29.73 in1006.8 mb 0.15 in3.8 mm 0.12 in3.0 mm 0.31 in7.9 mm
02:43 AM 58.4°F14.7°C 57.8°F14.3°C 98% 1.8 mph ESE2.9 kmh ESE 6.0 mph9.7 kmh 29.73 in1006.8 mb 0.14 in3.6 mm 0.00 in0.0 mm 0.31 in7.9 mm
02:48 AM 58.4°F14.7°C 57.8°F14.3°C 98% 1.3 mph SE2.1 kmh SE 6.0 mph9.7 kmh 29.73 in1006.8 mb 0.13 in3.3 mm 0.00 in0.0 mm 0.31 in7.9 mm
02:53 AM 58.4°F14.7°C 57.8°F14.3°C 98% Calm Calm 4.5 mph7.2 kmh 29.72 in1006.4 mb 0.13 in3.3 mm 0.00 in0.0 mm 0.32 in8.1 mm
02:58 AM 58.4°F14.7°C 57.8°F14.3°C 98% 5.4 mph S8.7 kmh S 16.5 mph26.6 kmh 29.73 in1006.8 mb 0.10 in2.5 mm 0.00 in0.0 mm 0.32 in8.1 mm
03:03 AM 58.6°F14.8°C 58.0°F14.4°C 98% 2.2 mph SSE3.5 kmh SSE 16.5 mph26.6 kmh 29.73 in1006.8 mb 0.09 in2.3 mm 0.00 in0.0 mm 0.32 in8.1 mm
03:08 AM 58.6°F14.8°C 58.0°F14.4°C 98% 5.7 mph S9.2 kmh S 16.5 mph26.6 kmh 29.73 in1006.8 mb 0.08 in2.0 mm 0.00 in0.0 mm 0.32 in8.1 mm
03:13 AM 58.6°F14.8°C 58.0°F14.4°C 98% 5.7 mph S9.2 kmh S 16.5 mph26.6 kmh 29.74 in1007.1 mb 0.05 in1.3 mm 0.00 in0.0 mm 0.32 in8.1 mm
03:18 AM 58.7°F14.8°C 58.1°F14.5°C 98% 2.6 mph SSE4.2 kmh SSE 13.5 mph21.7 kmh 29.74 in1007.1 mb 0.05 in1.3 mm 0.00 in0.0 mm 0.32 in8.1 mm
03:23 AM 58.7°F14.8°C 58.1°F14.5°C 98% 4.5 mph S7.2 kmh S 13.5 mph21.7 kmh 29.74 in1007.1 mb 0.04 in1.0 mm 0.00 in0.0 mm 0.32 in8.1 mm
03:28 AM 58.6°F14.8°C 58.0°F14.4°C 98% 2.3 mph SE3.7 kmh SE 13.5 mph21.7 kmh 29.74 in1007.1 mb 0.03 in0.8 mm 0.00 in0.0 mm 0.32 in8.1 mm
03:33 AM 58.6°F14.8°C 57.7°F14.3°C 97% 3.8 mph ESE6.1 kmh ESE 12.0 mph19.3 kmh 29.73 in1006.8 mb 0.03 in0.8 mm 0.00 in0.0 mm 0.32 in8.1 mm
03:38 AM 58.6°F14.8°C 57.7°F14.3°C 97% 2.5 mph E4.0 kmh E 12.0 mph19.3 kmh 29.73 in1006.8 mb 0.02 in0.5 mm 0.00 in0.0 mm 0.33 in8.4 mm
03:44 AM 58.4°F14.7°C 57.5°F14.2°C 97% 1.8 mph SE2.9 kmh SE 12.0 mph19.3 kmh 29.74 in1007.1 mb 0.02 in0.5 mm 0.00 in0.0 mm 0.33 in8.4 mm
03:49 AM 58.5°F14.7°C 57.6°F14.2°C 97% 2.3 mph S3.7 kmh S 10.5 mph16.9 kmh 29.73 in1006.8 mb 0.02 in0.5 mm 0.00 in0.0 mm 0.33 in8.4 mm
03:54 AM 58.4°F14.7°C 57.5°F14.2°C 97% 1.8 mph SE2.9 kmh SE 7.5 mph12.1 kmh 29.73 in1006.8 mb 0.01 in0.3 mm 0.00 in0.0 mm 0.33 in8.4 mm
03:59 AM 58.4°F14.7°C 57.5°F14.2°C 97% 1.3 mph SSE2.1 kmh SSE 7.5 mph12.1 kmh 29.72 in1006.4 mb 0.02 in0.5 mm 0.12 in3.0 mm 0.34 in8.6 mm
04:04 AM 58.3°F14.6°C 57.4°F14.1°C 97% Calm Calm 7.5 mph12.1 kmh 29.72 in1006.4 mb 0.02 in0.5 mm 0.00 in0.0 mm 0.34 in8.6 mm
04:09 AM 58.3°F14.6°C 57.4°F14.1°C 97% Calm Calm 7.5 mph12.1 kmh 29.71 in1006.1 mb 0.02 in0.5 mm 0.00 in0.0 mm 0.34 in8.6 mm
04:14 AM 58.2°F14.6°C 57.3°F14.1°C 97% 1.7 mph SSE2.7 kmh SSE 6.0 mph9.7 kmh 29.72 in1006.4 mb 0.02 in0.5 mm 0.00 in0.0 mm 0.34 in8.6 mm
04:19 AM 58.1°F14.5°C 57.2°F14.0°C 97% 1.3 mph SE2.1 kmh SE 3.0 mph4.8 kmh 29.72 in1006.4 mb 0.02 in0.5 mm 0.00 in0.0 mm 0.34 in8.6 mm
04:24 AM 57.9°F14.4°C 56.7°F13.7°C 96% 1.8 mph SE2.9 kmh SE 3.0 mph4.8 kmh 29.72 in1006.4 mb 0.02 in0.5 mm 0.00 in0.0 mm 0.34 in8.6 mm
04:29 AM 58.0°F14.4°C 57.1°F13.9°C 97% 1.3 mph SE2.1 kmh SE 6.0 mph9.7 kmh 29.71 in1006.1 mb 0.02 in0.5 mm 0.00 in0.0 mm 0.34 in8.6 mm
04:34 AM 58.0°F14.4°C 57.1°F13.9°C 97% 1.3 mph N2.1 kmh N 6.0 mph9.7 kmh 29.71 in1006.1 mb 0.02 in0.5 mm 0.00 in0.0 mm 0.34 in8.6 mm
04:39 AM 57.9°F14.4°C 57.0°F13.9°C 97% Calm Calm 4.5 mph7.2 kmh 29.72 in1006.4 mb 0.01 in0.3 mm 0.00 in0.0 mm 0.34 in8.6 mm
04:44 AM 57.8°F14.3°C 56.9°F13.8°C 97% 1.3 mph SE2.1 kmh SE 4.5 mph7.2 kmh 29.73 in1006.8 mb 0.01 in0.3 mm 0.00 in0.0 mm 0.34 in8.6 mm
04:49 AM 57.8°F14.3°C 56.9°F13.8°C 97% Calm Calm 4.5 mph7.2 kmh 29.73 in1006.8 mb 0.02 in0.5 mm 0.12 in3.0 mm 0.35 in8.9 mm
04:54 AM 57.7°F14.3°C 56.8°F13.8°C 97% 1.3 mph SE2.1 kmh SE 4.5 mph7.2 kmh 29.73 in1006.8 mb 0.03 in0.8 mm 0.12 in3.0 mm 0.36 in9.1 mm
04:59 AM 57.6°F14.2°C 56.7°F13.7°C 97% Calm Calm 4.5 mph7.2 kmh 29.74 in1007.1 mb 0.02 in0.5 mm 0.00 in0.0 mm 0.36 in9.1 mm
05:04 AM 57.5°F14.2°C 56.6°F13.7°C 97% Calm Calm 4.5 mph7.2 kmh 29.73 in1006.8 mb 0.02 in0.5 mm 0.00 in0.0 mm 0.36 in9.1 mm
05:09 AM 57.2°F14.0°C 56.3°F13.5°C 97% 1.3 mph ESE2.1 kmh ESE 1.5 mph2.4 kmh 29.73 in1006.8 mb 0.03 in0.8 mm 0.12 in3.0 mm 0.37 in9.4 mm
05:14 AM 57.1°F13.9°C 56.2°F13.4°C 97% 1.3 mph SSE2.1 kmh SSE 1.5 mph2.4 kmh 29.73 in1006.8 mb 0.04 in1.0 mm 0.12 in3.0 mm 0.38 in9.7 mm
05:19 AM 57.4°F14.1°C 56.5°F13.6°C 97% 1.3 mph ESE2.1 kmh ESE 1.5 mph2.4 kmh 29.74 in1007.1 mb 0.04 in1.0 mm 0.00 in0.0 mm 0.38 in9.7 mm
05:24 AM 57.3°F14.1°C 56.4°F13.6°C 97% 1.3 mph E2.1 kmh E 1.5 mph2.4 kmh 29.74 in1007.1 mb 0.05 in1.3 mm 0.12 in3.0 mm 0.40 in10.2 mm
05:29 AM 57.3°F14.1°C 56.4°F13.6°C 97% 1.3 mph SE2.1 kmh SE 1.5 mph2.4 kmh 29.74 in1007.1 mb 0.05 in1.3 mm 0.00 in0.0 mm 0.40 in10.2 mm
05:34 AM 57.2°F14.0°C 56.3°F13.5°C 97% 1.5 mph E2.4 kmh E 3.0 mph4.8 kmh 29.75 in1007.5 mb 0.05 in1.3 mm 0.00 in0.0 mm 0.40 in10.2 mm
05:39 AM 57.3°F14.1°C 56.4°F13.6°C 97% 2.7 mph SE4.3 kmh SE 7.5 mph12.1 kmh 29.75 in1007.5 mb 0.05 in1.3 mm 0.00 in0.0 mm 0.40 in10.2 mm
05:44 AM 57.4°F14.1°C 56.5°F13.6°C 97% 1.3 mph SE2.1 kmh SE 7.5 mph12.1 kmh 29.74 in1007.1 mb 0.07 in1.8 mm 0.24 in6.1 mm 0.41 in10.4 mm
05:49 AM 57.3°F14.1°C 56.4°F13.6°C 97% 1.3 mph SE2.1 kmh SE 7.5 mph12.1 kmh 29.74 in1007.1 mb 0.05 in1.3 mm 0.00 in0.0 mm 0.41 in10.4 mm
05:54 AM 57.2°F14.0°C 56.3°F13.5°C 97% 1.3 mph ENE2.1 kmh ENE 7.5 mph12.1 kmh 29.74 in1007.1 mb 0.04 in1.0 mm 0.00 in0.0 mm 0.41 in10.4 mm
05:59 AM 57.1°F13.9°C 56.2°F13.4°C 97% 1.3 mph E2.1 kmh E 6.0 mph9.7 kmh 29.74 in1007.1 mb 0.04 in1.0 mm 0.00 in0.0 mm 0.41 in10.4 mm
06:04 AM 56.9°F13.8°C 56.0°F13.3°C 97% 1.6 mph SSE2.6 kmh SSE 4.5 mph7.2 kmh 29.74 in1007.1 mb 0.04 in1.0 mm 0.00 in0.0 mm 0.41 in10.4 mm
06:09 AM 56.9°F13.8°C 56.0°F13.3°C 97% 2.8 mph SE4.5 kmh SE 7.5 mph12.1 kmh 29.73 in1006.8 mb 0.03 in0.8 mm 0.00 in0.0 mm 0.41 in10.4 mm
06:14 AM 56.9°F13.8°C 56.0°F13.3°C 97% Calm Calm 7.5 mph12.1 kmh 29.73 in1006.8 mb 0.02 in0.5 mm 0.00 in0.0 mm 0.41 in10.4 mm
06:19 AM 56.6°F13.7°C 55.4°F13.0°C 96% 1.3 mph E2.1 kmh E 7.5 mph12.1 kmh 29.72 in1006.4 mb 0.03 in0.8 mm 0.12 in3.0 mm 0.42 in10.7 mm
06:24 AM 56.5°F13.6°C 55.6°F13.1°C 97% 1.5 mph E2.4 kmh E 7.5 mph12.1 kmh 29.72 in1006.4 mb 0.02 in0.5 mm 0.00 in0.0 mm 0.42 in10.7 mm
06:29 AM 56.4°F13.6°C 55.5°F13.1°C 97% 1.8 mph SE2.9 kmh SE 3.0 mph4.8 kmh 29.73 in1006.8 mb 0.02 in0.5 mm 0.00 in0.0 mm 0.42 in10.7 mm
06:34 AM 56.4°F13.6°C 55.5°F13.1°C 97% 1.5 mph E2.4 kmh E 3.0 mph4.8 kmh 29.73 in1006.8 mb 0.02 in0.5 mm 0.00 in0.0 mm 0.42 in10.7 mm
06:39 AM 56.5°F13.6°C 55.6°F13.1°C 97% 4.4 mph NE7.1 kmh NE 9.0 mph14.5 kmh 29.72 in1006.4 mb 0.02 in0.5 mm 0.00 in0.0 mm 0.42 in10.7 mm
06:44 AM 56.8°F13.8°C 55.9°F13.3°C 97% 1.9 mph SSE3.1 kmh SSE 9.0 mph14.5 kmh 29.73 in1006.8 mb 0.01 in0.3 mm 0.00 in0.0 mm 0.42 in10.7 mm
06:49 AM 56.9°F13.8°C 56.0°F13.3°C 97% 2.0 mph ENE3.2 kmh ENE 7.5 mph12.1 kmh 29.73 in1006.8 mb 0.01 in0.3 mm 0.00 in0.0 mm 0.42 in10.7 mm
06:54 AM 56.9°F13.8°C 56.0°F13.3°C 97% 2.2 mph E3.5 kmh E 7.5 mph12.1 kmh 29.73 in1006.8 mb 0.01 in0.3 mm 0.00 in0.0 mm 0.42 in10.7 mm
06:59 AM 57.0°F13.9°C 56.1°F13.4°C 97% 2.5 mph E4.0 kmh E 7.5 mph12.1 kmh 29.72 in1006.4 mb 0.01 in0.3 mm 0.00 in0.0 mm 0.42 in10.7 mm
07:04 AM 56.9°F13.8°C 56.0°F13.3°C 97% 3.6 mph SE5.8 kmh SE 7.5 mph12.1 kmh 29.72 in1006.4 mb 0.01 in0.3 mm 0.00 in0.0 mm 0.42 in10.7 mm
07:10 AM 56.9°F13.8°C 56.0°F13.3°C 97% 1.3 mph SSW2.1 kmh SSW 7.5 mph12.1 kmh 29.72 in1006.4 mb 0.01 in0.3 mm 0.00 in0.0 mm 0.42 in10.7 mm
07:15 AM 56.9°F13.8°C 56.0°F13.3°C 97% 2.2 mph S3.5 kmh S 7.5 mph12.1 kmh 29.74 in1007.1 mb 0.01 in0.3 mm 0.00 in0.0 mm 0.42 in10.7 mm
07:20 AM 57.0°F13.9°C 56.1°F13.4°C 97% 2.3 mph S3.7 kmh S 7.5 mph12.1 kmh 29.74 in1007.1 mb 0.00 in0.0 mm 0.00 in0.0 mm 0.42 in10.7 mm
07:25 AM 57.0°F13.9°C 56.1°F13.4°C 97% Calm Calm 6.0 mph9.7 kmh 29.73 in1006.8 mb 0.00 in0.0 mm 0.00 in0.0 mm 0.42 in10.7 mm
07:30 AM 56.9°F13.8°C 56.0°F13.3°C 97% 2.3 mph S3.7 kmh S 6.0 mph9.7 kmh 29.75 in1007.5 mb 0.00 in0.0 mm 0.00 in0.0 mm 0.42 in10.7 mm
07:35 AM 56.9°F13.8°C 56.0°F13.3°C 97% 1.5 mph SW2.4 kmh SW 6.0 mph9.7 kmh 29.74 in1007.1 mb 0.00 in0.0 mm 0.00 in0.0 mm 0.42 in10.7 mm
07:40 AM 56.9°F13.8°C 56.0°F13.3°C 97% 2.3 mph SSW3.7 kmh SSW 6.0 mph9.7 kmh 29.74 in1007.1 mb 0.00 in0.0 mm 0.00 in0.0 mm 0.42 in10.7 mm
07:45 AM 56.9°F13.8°C 56.0°F13.3°C 97% 1.7 mph SW2.7 kmh SW 6.0 mph9.7 kmh 29.74 in1007.1 mb 0.00 in0.0 mm 0.00 in0.0 mm 0.42 in10.7 mm
07:50 AM 56.9°F13.8°C 56.0°F13.3°C 97% 3.6 mph SSW5.8 kmh SSW 7.5 mph12.1 kmh 29.74 in1007.1 mb 0.00 in0.0 mm 0.00 in0.0 mm 0.42 in10.7 mm
07:55 AM 56.8°F13.8°C 55.6°F13.1°C 96% 1.3 mph WSW2.1 kmh WSW 7.5 mph12.1 kmh 29.74 in1007.1 mb 0.00 in0.0 mm 0.00 in0.0 mm 0.42 in10.7 mm
08:00 AM 56.6°F13.7°C 55.4°F13.0°C 96% 1.3 mph E2.1 kmh E 7.5 mph12.1 kmh 29.74 in1007.1 mb 0.00 in0.0 mm 0.00 in0.0 mm 0.42 in10.7 mm
08:05 AM 56.5°F13.6°C 55.3°F12.9°C 96% 1.3 mph WSW2.1 kmh WSW 7.5 mph12.1 kmh 29.73 in1006.8 mb 0.00 in0.0 mm 0.00 in0.0 mm 0.42 in10.7 mm
08:10 AM 56.3°F13.5°C 55.1°F12.8°C 96% Calm Calm 1.5 mph2.4 kmh 29.74 in1007.1 mb 0.00 in0.0 mm 0.00 in0.0 mm 0.42 in10.7 mm
08:15 AM 56.3°F13.5°C 55.4°F13.0°C 97% Calm Calm 1.5 mph2.4 kmh 29.74 in1007.1 mb 0.00 in0.0 mm 0.00 in0.0 mm 0.42 in10.7 mm
08:20 AM 56.2°F13.4°C 55.3°F12.9°C 97% 1.3 mph WSW2.1 kmh WSW 1.5 mph2.4 kmh 29.76 in1007.8 mb 0.03 in0.8 mm 0.36 in9.1 mm 0.45 in11.4 mm
08:25 AM 56.1°F13.4°C 55.2°F12.9°C 97% 1.3 mph W2.1 kmh W 3.0 mph4.8 kmh 29.76 in1007.8 mb 0.07 in1.8 mm 0.48 in12.2 mm 0.48 in12.2 mm
08:30 AM 56.1°F13.4°C 55.2°F12.9°C 97% 1.3 mph WSW2.1 kmh WSW 4.5 mph7.2 kmh 29.78 in1008.5 mb 0.07 in1.8 mm 0.00 in0.0 mm 0.48 in12.2 mm
08:35 AM 55.7°F13.2°C 54.5°F12.5°C 96% 2.3 mph SSW3.7 kmh SSW 6.0 mph9.7 kmh 29.79 in1008.8 mb 0.07 in1.8 mm 0.00 in0.0 mm 0.48 in12.2 mm
08:40 AM 55.0°F12.8°C 53.3°F11.8°C 94% 1.5 mph E2.4 kmh E 7.5 mph12.1 kmh 29.80 in1009.1 mb 0.07 in1.8 mm 0.00 in0.0 mm 0.48 in12.2 mm
08:45 AM 54.6°F12.6°C 52.9°F11.6°C 94% 1.7 mph WSW2.7 kmh WSW 7.5 mph12.1 kmh 29.79 in1008.8 mb 0.07 in1.8 mm 0.00 in0.0 mm 0.48 in12.2 mm
08:50 AM 54.3°F12.4°C 52.3°F11.3°C 93% 1.3 mph WSW2.1 kmh WSW 7.5 mph12.1 kmh 29.80 in1009.1 mb 0.07 in1.8 mm 0.00 in0.0 mm 0.48 in12.2 mm
08:55 AM 54.0°F12.2°C 52.0°F11.1°C 93% 1.8 mph SSW2.9 kmh SSW 7.5 mph12.1 kmh 29.81 in1009.5 mb 0.07 in1.8 mm 0.00 in0.0 mm 0.48 in12.2 mm
09:00 AM 53.8°F12.1°C 51.5°F10.8°C 92% 2.0 mph SW3.2 kmh SW 4.5 mph7.2 kmh 29.81 in1009.5 mb 0.07 in1.8 mm 0.00 in0.0 mm 0.48 in12.2 mm
09:05 AM 53.6°F12.0°C 51.3°F10.7°C 92% 1.3 mph SSW2.1 kmh SSW 4.5 mph7.2 kmh 29.82 in1009.8 mb 0.07 in1.8 mm 0.00 in0.0 mm 0.48 in12.2 mm
09:10 AM 53.5°F11.9°C 51.5°F10.8°C 93% 1.3 mph WSW2.1 kmh WSW 4.5 mph7.2 kmh 29.83 in1010.2 mb 0.07 in1.8 mm 0.00 in0.0 mm 0.48 in12.2 mm
09:15 AM 53.4°F11.9°C 51.1°F10.6°C 92% 1.8 mph WSW2.9 kmh WSW 4.5 mph7.2 kmh 29.83 in1010.2 mb 0.07 in1.8 mm 0.00 in0.0 mm 0.48 in12.2 mm
09:20 AM 53.6°F12.0°C 51.6°F10.9°C 93% Calm Calm 4.5 mph7.2 kmh 29.84 in1010.5 mb 0.02 in0.5 mm 0.00 in0.0 mm 0.48 in12.2 mm
09:25 AM 53.6°F12.0°C 51.6°F10.9°C 93% 2.5 mph SW4.0 kmh SW 7.5 mph12.1 kmh 29.83 in1010.2 mb 0.00 in0.0 mm 0.00 in0.0 mm 0.48 in12.2 mm
09:30 AM 53.6°F12.0°C 50.7°F10.4°C 90% 1.3 mph WSW2.1 kmh WSW 7.5 mph12.1 kmh 29.81 in1009.5 mb 0.00 in0.0 mm 0.00 in0.0 mm 0.48 in12.2 mm
09:35 AM 53.5°F11.9°C 50.6°F10.3°C 90% 2.1 mph SW3.4 kmh SW 7.5 mph12.1 kmh 29.84 in1010.5 mb 0.00 in0.0 mm 0.00 in0.0 mm 0.48 in12.2 mm
09:40 AM 53.4°F11.9°C 50.5°F10.3°C 90% 1.7 mph SW2.7 kmh SW 7.5 mph12.1 kmh 29.86 in1011.2 mb 0.00 in0.0 mm 0.00 in0.0 mm 0.48 in12.2 mm
09:45 AM 53.1°F11.7°C 49.6°F9.8°C 88% 2.4 mph WSW3.9 kmh WSW 9.0 mph14.5 kmh 29.86 in1011.2 mb 0.00 in0.0 mm 0.00 in0.0 mm 0.48 in12.2 mm
09:50 AM 52.9°F11.6°C 49.4°F9.7°C 88% 1.9 mph W3.1 kmh W 9.0 mph14.5 kmh 29.84 in1010.5 mb 0.00 in0.0 mm 0.00 in0.0 mm 0.48 in12.2 mm
09:55 AM 52.7°F11.5°C 49.5°F9.7°C 89% 1.5 mph NNW2.4 kmh NNW 9.0 mph14.5 kmh 29.85 in1010.8 mb 0.00 in0.0 mm 0.00 in0.0 mm 0.48 in12.2 mm
10:00 AM 52.5°F11.4°C 49.0°F9.4°C 88% 1.8 mph SW2.9 kmh SW 9.0 mph14.5 kmh 29.85 in1010.8 mb 0.00 in0.0 mm 0.00 in0.0 mm 0.48 in12.2 mm
10:05 AM 52.3°F11.3°C 48.8°F9.3°C 88% 1.3 mph SW2.1 kmh SW 6.0 mph9.7 kmh 29.87 in1011.5 mb 0.00 in0.0 mm 0.00 in0.0 mm 0.48 in12.2 mm
10:10 AM 52.0°F11.1°C 48.8°F9.3°C 89% 1.3 mph E2.1 kmh E 4.5 mph7.2 kmh 29.88 in1011.9 mb 0.00 in0.0 mm 0.00 in0.0 mm 0.48 in12.2 mm
10:15 AM 51.7°F10.9°C 48.0°F8.9°C 87% 2.1 mph SW3.4 kmh SW 9.0 mph14.5 kmh 29.87 in1011.5 mb 0.00 in0.0 mm 0.00 in0.0 mm 0.48 in12.2 mm
10:20 AM 51.4°F10.8°C 47.0°F8.3°C 85% 3.8 mph SW6.1 kmh SW 9.0 mph14.5 kmh 29.87 in1011.5 mb 0.00 in0.0 mm 0.00 in0.0 mm 0.48 in12.2 mm
10:25 AM 51.1°F10.6°C 47.1°F8.4°C 86% 1.9 mph SW3.1 kmh SW 9.0 mph14.5 kmh 29.88 in1011.9 mb 0.00 in0.0 mm 0.00 in0.0 mm 0.48 in12.2 mm
10:30 AM 50.8°F10.4°C 45.8°F7.7°C 83% 3.5 mph SW5.6 kmh SW 9.0 mph14.5 kmh 29.89 in1012.2 mb 0.00 in0.0 mm 0.00 in0.0 mm 0.48 in12.2 mm
10:35 AM 50.4°F10.2°C 46.1°F7.8°C 85% 1.8 mph WSW2.9 kmh WSW 9.1 mph14.6 kmh 29.89 in1012.2 mb 0.00 in0.0 mm 0.00 in0.0 mm 0.48 in12.2 mm
10:40 AM 50.0°F10.0°C 45.7°F7.6°C 85% 1.4 mph NW2.3 kmh NW 9.1 mph14.6 kmh 29.88 in1011.9 mb 0.00 in0.0 mm 0.00 in0.0 mm 0.48 in12.2 mm
10:45 AM 49.7°F9.8°C 45.4°F7.4°C 85% 2.7 mph WSW4.3 kmh WSW 9.0 mph14.5 kmh 29.89 in1012.2 mb 0.00 in0.0 mm 0.00 in0.0 mm 0.48 in12.2 mm
10:50 AM 49.6°F9.8°C 45.3°F7.4°C 85% 2.5 mph SW4.0 kmh SW 9.0 mph14.5 kmh 29.89 in1012.2 mb 0.00 in0.0 mm 0.00 in0.0 mm 0.48 in12.2 mm
10:55 AM 49.6°F9.8°C 45.3°F7.4°C 85% 2.0 mph WSW3.2 kmh WSW 7.5 mph12.1 kmh 29.90 in1012.5 mb 0.00 in0.0 mm 0.00 in0.0 mm 0.48 in12.2 mm
11:00 AM 49.7°F9.8°C 45.4°F7.4°C 85% 1.6 mph SW2.6 kmh SW 6.0 mph9.7 kmh 29.90 in1012.5 mb 0.00 in0.0 mm 0.00 in0.0 mm 0.48 in12.2 mm
11:05 AM 49.8°F9.9°C 45.5°F7.5°C 85% 3.1 mph SW5.0 kmh SW 6.0 mph9.7 kmh 29.91 in1012.9 mb 0.00 in0.0 mm 0.00 in0.0 mm 0.48 in12.2 mm
11:10 AM 49.8°F9.9°C 45.2°F7.3°C 84% 2.2 mph SW3.5 kmh SW 6.0 mph9.7 kmh 29.92 in1013.2 mb 0.00 in0.0 mm 0.00 in0.0 mm 0.48 in12.2 mm
11:15 AM 49.8°F9.9°C 44.8°F7.1°C 83% 2.5 mph WSW4.0 kmh WSW 6.0 mph9.7 kmh 29.92 in1013.2 mb 0.00 in0.0 mm 0.00 in0.0 mm 0.48 in12.2 mm
11:20 AM 49.8°F9.9°C 45.2°F7.3°C 84% 3.3 mph SSW5.3 kmh SSW 12.0 mph19.3 kmh 29.92 in1013.2 mb 0.00 in0.0 mm 0.00 in0.0 mm 0.48 in12.2 mm
11:25 AM 49.7°F9.8°C 44.4°F6.9°C 82% 3.6 mph SSW5.8 kmh SSW 12.0 mph19.3 kmh 29.93 in1013.5 mb 0.00 in0.0 mm 0.00 in0.0 mm 0.48 in12.2 mm
11:31 AM 49.5°F9.7°C 44.2°F6.8°C 82% 3.0 mph SW4.8 kmh SW 12.0 mph19.3 kmh 29.93 in1013.5 mb 0.00 in0.0 mm 0.00 in0.0 mm 0.48 in12.2 mm
11:35 AM 49.4°F9.7°C 44.2°F6.8°C 82% 2.3 mph S3.7 kmh S 12.0 mph19.3 kmh 29.94 in1013.9 mb 0.00 in0.0 mm 0.00 in0.0 mm 0.48 in12.2 mm
11:41 AM 49.5°F9.7°C 44.2°F6.8°C 82% 1.3 mph W2.1 kmh W 10.5 mph16.9 kmh 29.95 in1014.2 mb 0.00 in0.0 mm 0.00 in0.0 mm 0.48 in12.2 mm
11:46 AM 49.6°F9.8°C 44.3°F6.8°C 82% 1.8 mph SSW2.9 kmh SSW 6.0 mph9.7 kmh 29.95 in1014.2 mb 0.00 in0.0 mm 0.00 in0.0 mm 0.48 in12.2 mm
11:51 AM 49.4°F9.7°C 43.8°F6.6°C 81% 2.5 mph SSW4.0 kmh SSW 6.0 mph9.7 kmh 29.95 in1014.2 mb 0.00 in0.0 mm 0.00 in0.0 mm 0.48 in12.2 mm
11:56 AM 49.0°F9.4°C 43.4°F6.3°C 81% 2.3 mph SSE3.7 kmh SSE 10.5 mph16.9 kmh 29.95 in1014.2 mb 0.00 in0.0 mm 0.00 in0.0 mm 0.48 in12.2 mm
12:01 PM 48.7°F9.3°C 43.2°F6.2°C 81% 2.1 mph S3.4 kmh S 10.5 mph16.9 kmh 29.96 in1014.6 mb 0.00 in0.0 mm 0.00 in0.0 mm 0.48 in12.2 mm
12:06 PM 48.6°F9.2°C 43.1°F6.2°C 81% 2.4 mph SW3.9 kmh SW 10.5 mph16.9 kmh 29.97 in1014.9 mb 0.00 in0.0 mm 0.00 in0.0 mm 0.48 in12.2 mm
12:11 PM 48.5°F9.2°C 43.0°F6.1°C 81% 2.0 mph SW3.2 kmh SW 10.5 mph16.9 kmh 29.97 in1014.9 mb 0.00 in0.0 mm 0.00 in0.0 mm 0.48 in12.2 mm
12:16 PM 48.4°F9.1°C 43.2°F6.2°C 82% 1.6 mph WSW2.6 kmh WSW 7.5 mph12.1 kmh 29.97 in1014.9 mb 0.00 in0.0 mm 0.00 in0.0 mm 0.48 in12.2 mm
12:21 PM 48.2°F9.0°C 42.4°F5.8°C 80% 2.6 mph SW4.2 kmh SW 7.5 mph12.1 kmh 29.97 in1014.9 mb 0.00 in0.0 mm 0.00 in0.0 mm 0.48 in12.2 mm
12:26 PM 48.0°F8.9°C 42.2°F5.7°C 80% 2.1 mph SW3.4 kmh SW 7.5 mph12.1 kmh 29.98 in1015.2 mb 0.00 in0.0 mm 0.00 in0.0 mm 0.48 in12.2 mm
12:31 PM 47.7°F8.7°C 41.9°F5.5°C 80% 1.9 mph WSW3.1 kmh WSW 7.5 mph12.1 kmh 29.98 in1015.2 mb 0.00 in0.0 mm 0.00 in0.0 mm 0.48 in12.2 mm
12:36 PM 47.7°F8.7°C 42.2°F5.7°C 81% 2.9 mph WSW4.7 kmh WSW 7.5 mph12.1 kmh 29.98 in1015.2 mb 0.00 in0.0 mm 0.00 in0.0 mm 0.48 in12.2 mm
12:41 PM 47.6°F8.7°C 42.1°F5.6°C 81% 1.7 mph W2.7 kmh W 7.5 mph12.1 kmh 29.98 in1015.2 mb 0.00 in0.0 mm 0.00 in0.0 mm 0.48 in12.2 mm
12:46 PM 47.5°F8.6°C 41.7°F5.4°C 80% 1.5 mph WSW2.4 kmh WSW 7.5 mph12.1 kmh 29.98 in1015.2 mb 0.00 in0.0 mm 0.00 in0.0 mm 0.48 in12.2 mm
12:51 PM 47.5°F8.6°C 42.3°F5.7°C 82% 1.3 mph WNW2.1 kmh WNW 7.5 mph12.1 kmh 29.98 in1015.2 mb 0.00 in0.0 mm 0.00 in0.0 mm 0.48 in12.2 mm
12:56 PM 47.6°F8.7°C 42.4°F5.8°C 82% 2.7 mph W4.3 kmh W 7.5 mph12.1 kmh 29.98 in1015.2 mb 0.00 in0.0 mm 0.00 in0.0 mm 0.48 in12.2 mm
01:01 PM 47.5°F8.6°C 42.0°F5.6°C 81% 1.4 mph WSW2.3 kmh WSW 7.5 mph12.1 kmh 29.98 in1015.2 mb 0.00 in0.0 mm 0.00 in0.0 mm 0.48 in12.2 mm
01:06 PM 47.3°F8.5°C 41.8°F5.4°C 81% 1.9 mph WSW3.1 kmh WSW 6.0 mph9.7 kmh 29.99 in1015.6 mb 0.00 in0.0 mm 0.00 in0.0 mm 0.48 in12.2 mm
01:11 PM 47.3°F8.5°C 42.4°F5.8°C 83% 1.3 mph WSW2.1 kmh WSW 6.0 mph9.7 kmh 29.99 in1015.6 mb 0.00 in0.0 mm 0.00 in0.0 mm 0.48 in12.2 mm
01:16 PM 47.4°F8.6°C 41.6°F5.3°C 80% 2.2 mph WNW3.5 kmh WNW 4.5 mph7.2 kmh 29.99 in1015.6 mb 0.00 in0.0 mm 0.00 in0.0 mm 0.48 in12.2 mm
01:21 PM 47.4°F8.6°C 41.6°F5.3°C 80% 2.3 mph W3.7 kmh W 4.5 mph7.2 kmh 29.99 in1015.6 mb 0.00 in0.0 mm 0.00 in0.0 mm 0.48 in12.2 mm
01:26 PM 47.5°F8.6°C 42.0°F5.6°C 81% 1.3 mph WSW2.1 kmh WSW 4.5 mph7.2 kmh 29.99 in1015.6 mb 0.00 in0.0 mm 0.00 in0.0 mm 0.48 in12.2 mm
01:31 PM 47.7°F8.7°C 42.2°F5.7°C 81% 1.8 mph SW2.9 kmh SW 4.5 mph7.2 kmh 29.99 in1015.6 mb 0.00 in0.0 mm 0.00 in0.0 mm 0.48 in12.2 mm
01:36 PM 47.7°F8.7°C 41.5°F5.3°C 79% 2.2 mph WSW3.5 kmh WSW 7.5 mph12.1 kmh 29.99 in1015.6 mb 0.00 in0.0 mm 0.00 in0.0 mm 0.48 in12.2 mm
01:41 PM 47.7°F8.7°C 41.5°F5.3°C 79% 2.0 mph SW3.2 kmh SW 10.5 mph16.9 kmh 29.99 in1015.6 mb 0.00 in0.0 mm 0.00 in0.0 mm 0.48 in12.2 mm
01:46 PM 47.7°F8.7°C 41.5°F5.3°C 79% 2.1 mph WSW3.4 kmh WSW 10.5 mph16.9 kmh 29.99 in1015.6 mb 0.00 in0.0 mm 0.00 in0.0 mm 0.48 in12.2 mm
01:51 PM 47.6°F8.7°C 40.8°F4.9°C 77% 2.5 mph WNW4.0 kmh WNW 9.0 mph14.5 kmh 29.99 in1015.6 mb 0.00 in0.0 mm 0.00 in0.0 mm 0.48 in12.2 mm
01:56 PM 47.4°F8.6°C 40.3°F4.6°C 76% 1.5 mph N2.4 kmh N 9.0 mph14.5 kmh 30.00 in1015.9 mb 0.00 in0.0 mm 0.00 in0.0 mm 0.48 in12.2 mm
02:01 PM 47.3°F8.5°C 40.5°F4.7°C 77% 2.5 mph W4.0 kmh W 7.5 mph12.1 kmh 30.00 in1015.9 mb 0.00 in0.0 mm 0.00 in0.0 mm 0.48 in12.2 mm
02:06 PM 47.3°F8.5°C 40.5°F4.7°C 77% 4.1 mph SW6.6 kmh SW 7.8 mph12.6 kmh 30.00 in1015.9 mb 0.00 in0.0 mm 0.00 in0.0 mm 0.48 in12.2 mm
02:11 PM 47.2°F8.4°C 40.4°F4.7°C 77% 1.7 mph WSW2.7 kmh WSW 9.0 mph14.5 kmh 30.01 in1016.3 mb 0.00 in0.0 mm 0.00 in0.0 mm 0.48 in12.2 mm
02:16 PM 47.0°F8.3°C 40.2°F4.6°C 77% 1.6 mph SW2.6 kmh SW 9.0 mph14.5 kmh 30.01 in1016.3 mb 0.00 in0.0 mm 0.00 in0.0 mm 0.48 in12.2 mm
02:21 PM 47.0°F8.3°C 40.2°F4.6°C 77% 2.6 mph WNW4.2 kmh WNW 10.5 mph16.9 kmh 30.01 in1016.3 mb 0.00 in0.0 mm 0.00 in0.0 mm 0.48 in12.2 mm
02:26 PM 46.7°F8.2°C 39.6°F4.2°C 76% 3.2 mph W5.1 kmh W 10.5 mph16.9 kmh 30.02 in1016.6 mb 0.00 in0.0 mm 0.00 in0.0 mm 0.48 in12.2 mm
02:31 PM 46.6°F8.1°C 39.2°F4.0°C 75% 3.2 mph WSW5.1 kmh WSW 9.0 mph14.5 kmh 30.02 in1016.6 mb 0.00 in0.0 mm 0.00 in0.0 mm 0.48 in12.2 mm
02:36 PM 46.3°F7.9°C 38.9°F3.8°C 75% 2.9 mph WSW4.7 kmh WSW 12.0 mph19.3 kmh 30.03 in1016.9 mb 0.00 in0.0 mm 0.00 in0.0 mm 0.48 in12.2 mm
02:41 PM 46.1°F7.8°C 39.3°F4.1°C 77% 1.7 mph W2.7 kmh W 12.0 mph19.3 kmh 30.03 in1016.9 mb 0.00 in0.0 mm 0.00 in0.0 mm 0.48 in12.2 mm
02:46 PM 46.0°F7.8°C 38.9°F3.8°C 76% 2.0 mph W3.2 kmh W 10.5 mph16.9 kmh 30.04 in1017.3 mb 0.00 in0.0 mm 0.00 in0.0 mm 0.48 in12.2 mm
02:51 PM 45.3°F7.4°C 37.8°F3.2°C 75% 2.6 mph W4.2 kmh W 10.5 mph16.9 kmh 30.05 in1017.6 mb 0.00 in0.0 mm 0.00 in0.0 mm 0.48 in12.2 mm
02:56 PM 44.9°F7.2°C 37.8°F3.2°C 76% 1.8 mph WSW2.9 kmh WSW 9.0 mph14.5 kmh 30.05 in1017.6 mb 0.00 in0.0 mm 0.00 in0.0 mm 0.48 in12.2 mm
03:01 PM 44.6°F7.0°C 38.2°F3.4°C 78% 3.1 mph NNW5.0 kmh NNW 9.0 mph14.5 kmh 30.06 in1017.9 mb 0.00 in0.0 mm 0.00 in0.0 mm 0.48 in12.2 mm
03:06 PM 44.5°F6.9°C 37.7°F3.2°C 77% 3.6 mph W5.8 kmh W 9.0 mph14.5 kmh 30.06 in1017.9 mb 0.00 in0.0 mm 0.00 in0.0 mm 0.48 in12.2 mm
03:11 PM 44.4°F6.9°C 37.6°F3.1°C 77% 3.0 mph SW4.8 kmh SW 7.5 mph12.1 kmh 30.06 in1017.9 mb 0.00 in0.0 mm 0.00 in0.0 mm 0.48 in12.2 mm
03:16 PM 44.2°F6.8°C 37.8°F3.2°C 78% 1.3 mph WSW2.1 kmh WSW 7.5 mph12.1 kmh 30.06 in1017.9 mb 0.00 in0.0 mm 0.00 in0.0 mm 0.48 in12.2 mm
03:21 PM 44.1°F6.7°C 38.0°F3.3°C 79% 2.4 mph SW3.9 kmh SW 7.5 mph12.1 kmh 30.06 in1017.9 mb 0.00 in0.0 mm 0.00 in0.0 mm 0.48 in12.2 mm
03:26 PM 43.8°F6.6°C 37.4°F3.0°C 78% 2.8 mph SW4.5 kmh SW 7.5 mph12.1 kmh 30.07 in1018.3 mb 0.00 in0.0 mm 0.00 in0.0 mm 0.48 in12.2 mm
03:31 PM 43.6°F6.4°C 37.8°F3.2°C 80% Calm Calm 7.5 mph12.1 kmh 30.07 in1018.3 mb 0.00 in0.0 mm 0.00 in0.0 mm 0.48 in12.2 mm
03:36 PM 43.5°F6.4°C 37.1°F2.8°C 78% 4.1 mph WSW6.6 kmh WSW 10.5 mph16.9 kmh 30.08 in1018.6 mb 0.00 in0.0 mm 0.00 in0.0 mm 0.48 in12.2 mm
03:41 PM 43.2°F6.2°C 36.5°F2.5°C 77% 2.6 mph NW4.2 kmh NW 10.5 mph16.9 kmh 30.08 in1018.6 mb 0.00 in0.0 mm 0.00 in0.0 mm 0.48 in12.2 mm
03:46 PM 43.3°F6.3°C 36.9°F2.7°C 78% 4.7 mph NNW7.6 kmh NNW 13.5 mph21.7 kmh 30.08 in1018.6 mb 0.00 in0.0 mm 0.00 in0.0 mm 0.48 in12.2 mm
03:51 PM 43.2°F6.2°C 37.2°F2.9°C 79% 1.3 mph WNW2.1 kmh WNW 13.5 mph21.7 kmh 30.08 in1018.6 mb 0.00 in0.0 mm 0.00 in0.0 mm 0.48 in12.2 mm
03:56 PM 43.2°F6.2°C 36.8°F2.7°C 78% 2.0 mph WNW3.2 kmh WNW 13.5 mph21.7 kmh 30.08 in1018.6 mb 0.00 in0.0 mm 0.00 in0.0 mm 0.48 in12.2 mm
04:01 PM 43.0°F6.1°C 36.6°F2.6°C 78% 2.4 mph WNW3.9 kmh WNW 13.5 mph21.7 kmh 30.08 in1018.6 mb 0.00 in0.0 mm 0.00 in0.0 mm 0.48 in12.2 mm
04:06 PM 43.0°F6.1°C 36.3°F2.4°C 77% 2.6 mph SW4.2 kmh SW 9.0 mph14.5 kmh 30.09 in1019.0 mb 0.00 in0.0 mm 0.00 in0.0 mm 0.48 in12.2 mm
04:11 PM 43.1°F6.2°C 36.4°F2.4°C 77% 1.9 mph NW3.1 kmh NW 6.5 mph10.5 kmh 30.09 in1019.0 mb 0.00 in0.0 mm 0.00 in0.0 mm 0.48 in12.2 mm
04:16 PM 43.2°F6.2°C 36.2°F2.3°C 76% 1.4 mph SW2.3 kmh SW 6.5 mph10.5 kmh 30.09 in1019.0 mb 0.00 in0.0 mm 0.00 in0.0 mm 0.48 in12.2 mm
04:21 PM 43.1°F6.2°C 35.8°F2.1°C 75% 1.3 mph WNW2.1 kmh WNW 6.0 mph9.7 kmh 30.10 in1019.3 mb 0.00 in0.0 mm 0.00 in0.0 mm 0.48 in12.2 mm
04:26 PM 43.0°F6.1°C 36.3°F2.4°C 77% 1.3 mph WNW2.1 kmh WNW 6.0 mph9.7 kmh 30.10 in1019.3 mb 0.00 in0.0 mm 0.00 in0.0 mm 0.48 in12.2 mm
04:31 PM 42.8°F6.0°C 36.5°F2.5°C 78% 1.3 mph S2.1 kmh S 4.5 mph7.2 kmh 30.10 in1019.3 mb 0.00 in0.0 mm 0.00 in0.0 mm 0.48 in12.2 mm
04:36 PM 42.7°F5.9°C 36.4°F2.4°C 78% 1.4 mph W2.3 kmh W 4.5 mph7.2 kmh 30.11 in1019.6 mb 0.00 in0.0 mm 0.00 in0.0 mm 0.48 in12.2 mm
04:42 PM 42.7°F5.9°C 36.4°F2.4°C 78% 2.4 mph SW3.9 kmh SW 4.5 mph7.2 kmh 30.11 in1019.6 mb 0.00 in0.0 mm 0.00 in0.0 mm 0.48 in12.2 mm
04:47 PM 42.5°F5.8°C 36.2°F2.3°C 78% 2.8 mph WSW4.5 kmh WSW 9.0 mph14.5 kmh 30.11 in1019.6 mb 0.00 in0.0 mm 0.00 in0.0 mm 0.48 in12.2 mm
04:52 PM 42.4°F5.8°C 36.1°F2.3°C 78% 2.4 mph W3.9 kmh W 12.0 mph19.3 kmh 30.11 in1019.6 mb 0.00 in0.0 mm 0.00 in0.0 mm 0.48 in12.2 mm
04:57 PM 42.2°F5.7°C 35.9°F2.2°C 78% 1.4 mph SW2.3 kmh SW 12.0 mph19.3 kmh 30.11 in1019.6 mb 0.00 in0.0 mm 0.00 in0.0 mm 0.48 in12.2 mm
05:02 PM 42.1°F5.6°C 35.5°F1.9°C 77% 4.0 mph SW6.4 kmh SW 12.0 mph19.3 kmh 30.12 in1020.0 mb 0.00 in0.0 mm 0.00 in0.0 mm 0.48 in12.2 mm
05:07 PM 42.0°F5.6°C 36.0°F2.2°C 79% 1.3 mph NNW2.1 kmh NNW 12.0 mph19.3 kmh 30.12 in1020.0 mb 0.00 in0.0 mm 0.00 in0.0 mm 0.48 in12.2 mm
05:12 PM 41.9°F5.5°C 35.9°F2.2°C 79% 1.3 mph SW2.1 kmh SW 12.0 mph19.3 kmh 30.12 in1020.0 mb 0.00 in0.0 mm 0.00 in0.0 mm 0.48 in12.2 mm
05:17 PM 41.7°F5.4°C 35.7°F2.1°C 79% 2.5 mph WSW4.0 kmh WSW 12.0 mph19.3 kmh 30.11 in1019.6 mb 0.00 in0.0 mm 0.00 in0.0 mm 0.48 in12.2 mm
05:22 PM 41.6°F5.3°C 35.6°F2.0°C 79% 1.8 mph SW2.9 kmh SW 7.5 mph12.1 kmh 30.12 in1020.0 mb 0.00 in0.0 mm 0.00 in0.0 mm 0.48 in12.2 mm
05:27 PM 41.6°F5.3°C 35.9°F2.2°C 80% 1.3 mph WSW2.1 kmh WSW 7.5 mph12.1 kmh 30.13 in1020.3 mb 0.00 in0.0 mm 0.00 in0.0 mm 0.48 in12.2 mm
05:32 PM 41.4°F5.2°C 35.4°F1.9°C 79% 1.9 mph WSW3.1 kmh WSW 7.5 mph12.1 kmh 30.13 in1020.3 mb 0.00 in0.0 mm 0.00 in0.0 mm 0.48 in12.2 mm
05:37 PM 41.3°F5.2°C 35.3°F1.8°C 79% 2.3 mph SW3.7 kmh SW 6.0 mph9.7 kmh 30.13 in1020.3 mb 0.00 in0.0 mm 0.00 in0.0 mm 0.48 in12.2 mm
05:42 PM 41.1°F5.1°C 35.1°F1.7°C 79% 2.2 mph SW3.5 kmh SW 6.0 mph9.7 kmh 30.14 in1020.7 mb 0.00 in0.0 mm 0.00 in0.0 mm 0.48 in12.2 mm
05:47 PM 40.9°F4.9°C 34.9°F1.6°C 79% 2.2 mph S3.5 kmh S 7.5 mph12.1 kmh 30.14 in1020.7 mb 0.00 in0.0 mm 0.00 in0.0 mm 0.48 in12.2 mm
05:52 PM 40.8°F4.9°C 34.5°F1.4°C 78% 1.7 mph W2.7 kmh W 7.5 mph12.1 kmh 30.15 in1021.0 mb 0.00 in0.0 mm 0.00 in0.0 mm 0.48 in12.2 mm
05:57 PM 40.7°F4.8°C 34.1°F1.2°C 77% 1.3 mph E2.1 kmh E 7.5 mph12.1 kmh 30.15 in1021.0 mb 0.00 in0.0 mm 0.00 in0.0 mm 0.48 in12.2 mm
06:02 PM 40.7°F4.8°C 34.4°F1.3°C 78% 2.0 mph WSW3.2 kmh WSW 7.5 mph12.1 kmh 30.15 in1021.0 mb 0.00 in0.0 mm 0.00 in0.0 mm 0.48 in12.2 mm
06:07 PM 40.6°F4.8°C 34.0°F1.1°C 77% 2.8 mph NW4.5 kmh NW 9.1 mph14.6 kmh 30.15 in1021.0 mb 0.00 in0.0 mm 0.00 in0.0 mm 0.48 in12.2 mm
06:12 PM 40.6°F4.8°C 34.3°F1.3°C 78% 1.9 mph W3.1 kmh W 9.1 mph14.6 kmh 30.16 in1021.3 mb 0.00 in0.0 mm 0.00 in0.0 mm 0.48 in12.2 mm
06:17 PM 40.5°F4.7°C 33.9°F1.1°C 77% 3.9 mph N6.3 kmh N 9.0 mph14.5 kmh 30.16 in1021.3 mb 0.00 in0.0 mm 0.00 in0.0 mm 0.48 in12.2 mm
06:22 PM 40.4°F4.7°C 33.5°F0.8°C 76% 2.2 mph NW3.5 kmh NW 10.5 mph16.9 kmh 30.17 in1021.7 mb 0.00 in0.0 mm 0.00 in0.0 mm 0.48 in12.2 mm
06:27 PM 40.3°F4.6°C 33.4°F0.8°C 76% 1.7 mph WSW2.7 kmh WSW 10.5 mph16.9 kmh 30.16 in1021.3 mb 0.00 in0.0 mm 0.00 in0.0 mm 0.48 in12.2 mm
06:32 PM 40.3°F4.6°C 33.1°F0.6°C 75% 1.3 mph ESE2.1 kmh ESE 10.5 mph16.9 kmh 30.17 in1021.7 mb 0.00 in0.0 mm 0.00 in0.0 mm 0.48 in12.2 mm
06:37 PM 40.2°F4.6°C 33.3°F0.7°C 76% 1.3 mph WSW2.1 kmh WSW 6.0 mph9.7 kmh 30.17 in1021.7 mb 0.00 in0.0 mm 0.00 in0.0 mm 0.48 in12.2 mm
06:42 PM 40.1°F4.5°C 32.9°F0.5°C 75% 2.4 mph W3.9 kmh W 7.5 mph12.1 kmh 30.17 in1021.7 mb 0.00 in0.0 mm 0.00 in0.0 mm 0.48 in12.2 mm
06:47 PM 40.0°F4.4°C 32.4°F0.2°C 74% 1.9 mph N3.1 kmh N 9.0 mph14.5 kmh 30.17 in1021.7 mb 0.00 in0.0 mm 0.00 in0.0 mm 0.48 in12.2 mm
06:52 PM 39.9°F4.4°C 32.7°F0.4°C 75% 1.9 mph NNW3.1 kmh NNW 9.0 mph14.5 kmh 30.17 in1021.7 mb 0.00 in0.0 mm 0.00 in0.0 mm 0.48 in12.2 mm
06:57 PM 39.9°F4.4°C 32.3°F0.2°C 74% 2.3 mph NNE3.7 kmh NNE 9.0 mph14.5 kmh 30.17 in1021.7 mb 0.00 in0.0 mm 0.00 in0.0 mm 0.48 in12.2 mm
07:02 PM 39.9°F4.4°C 32.3°F0.2°C 74% 1.6 mph WSW2.6 kmh WSW 9.0 mph14.5 kmh 30.17 in1021.7 mb 0.00 in0.0 mm 0.00 in0.0 mm 0.48 in12.2 mm
07:07 PM 39.9°F4.4°C 32.7°F0.4°C 75% 1.6 mph WNW2.6 kmh WNW 7.5 mph12.1 kmh 30.18 in1022.0 mb 0.00 in0.0 mm 0.00 in0.0 mm 0.48 in12.2 mm
07:12 PM 39.9°F4.4°C 32.3°F0.2°C 74% 3.5 mph N5.6 kmh N 10.5 mph16.9 kmh 30.18 in1022.0 mb 0.00 in0.0 mm 0.00 in0.0 mm 0.48 in12.2 mm
07:17 PM 39.9°F4.4°C 32.3°F0.2°C 74% 2.6 mph N4.2 kmh N 10.5 mph16.9 kmh 30.18 in1022.0 mb 0.00 in0.0 mm 0.00 in0.0 mm 0.48 in12.2 mm
07:22 PM 39.9°F4.4°C 32.3°F0.2°C 74% 2.2 mph NNE3.5 kmh NNE 10.5 mph16.9 kmh 30.19 in1022.4 mb 0.00 in0.0 mm 0.00 in0.0 mm 0.48 in12.2 mm
07:27 PM 39.9°F4.4°C 32.7°F0.4°C 75% 1.6 mph N2.6 kmh N 10.5 mph16.9 kmh 30.19 in1022.4 mb 0.00 in0.0 mm 0.00 in0.0 mm 0.48 in12.2 mm
07:32 PM 39.9°F4.4°C 32.3°F0.2°C 74% 2.9 mph NNW4.7 kmh NNW 10.5 mph16.9 kmh 30.19 in1022.4 mb 0.00 in0.0 mm 0.00 in0.0 mm 0.48 in12.2 mm
07:37 PM 39.9°F4.4°C 31.7°F-0.2°C 72% 1.6 mph WSW2.6 kmh WSW 10.5 mph16.9 kmh 30.19 in1022.4 mb 0.00 in0.0 mm 0.00 in0.0 mm 0.48 in12.2 mm
07:42 PM 39.9°F4.4°C 32.0°F0.0°C 73% 2.1 mph WNW3.4 kmh WNW 10.5 mph16.9 kmh 30.20 in1022.7 mb 0.00 in0.0 mm 0.00 in0.0 mm 0.48 in12.2 mm
07:47 PM 39.9°F4.4°C 32.0°F0.0°C 73% 2.3 mph W3.7 kmh W 6.0 mph9.7 kmh 30.19 in1022.4 mb 0.00 in0.0 mm 0.00 in0.0 mm 0.48 in12.2 mm
07:52 PM 39.9°F4.4°C 32.3°F0.2°C 74% 1.3 mph NW2.1 kmh NW 6.0 mph9.7 kmh 30.19 in1022.4 mb 0.00 in0.0 mm 0.00 in0.0 mm 0.48 in12.2 mm
07:57 PM 39.8°F4.3°C 31.6°F-0.2°C 72% 2.6 mph W4.2 kmh W 12.0 mph19.3 kmh 30.20 in1022.7 mb 0.00 in0.0 mm 0.00 in0.0 mm 0.48 in12.2 mm
08:02 PM 39.8°F4.3°C 31.6°F-0.2°C 72% 2.1 mph W3.4 kmh W 12.0 mph19.3 kmh 30.20 in1022.7 mb 0.00 in0.0 mm 0.00 in0.0 mm 0.48 in12.2 mm
08:07 PM 39.8°F4.3°C 31.2°F-0.4°C 71% 2.4 mph W3.9 kmh W 10.5 mph16.9 kmh 30.20 in1022.7 mb 0.00 in0.0 mm 0.00 in0.0 mm 0.48 in12.2 mm
08:12 PM 39.7°F4.3°C 31.5°F-0.3°C 72% 1.3 mph SE2.1 kmh SE 10.5 mph16.9 kmh 30.20 in1022.7 mb 0.00 in0.0 mm 0.00 in0.0 mm 0.48 in12.2 mm
08:17 PM 39.6°F4.2°C 31.7°F-0.2°C 73% Calm Calm 6.0 mph9.7 kmh 30.21 in1023.0 mb 0.00 in0.0 mm 0.00 in0.0 mm 0.48 in12.2 mm
08:22 PM 39.5°F4.2°C 31.6°F-0.2°C 73% 1.3 mph WNW2.1 kmh WNW 6.0 mph9.7 kmh 30.21 in1023.0 mb 0.00 in0.0 mm 0.00 in0.0 mm 0.48 in12.2 mm
08:27 PM 39.5°F4.2°C 31.6°F-0.2°C 73% 1.8 mph NNE2.9 kmh NNE 3.0 mph4.8 kmh 30.21 in1023.0 mb 0.00 in0.0 mm 0.00 in0.0 mm 0.48 in12.2 mm
08:32 PM 39.4°F4.1°C 31.9°F-0.1°C 74% 1.3 mph WNW2.1 kmh WNW 3.0 mph4.8 kmh 30.21 in1023.0 mb 0.00 in0.0 mm 0.00 in0.0 mm 0.48 in12.2 mm
08:37 PM 39.5°F4.2°C 31.3°F-0.4°C 72% 2.3 mph NW3.7 kmh NW 6.0 mph9.7 kmh 30.21 in1023.0 mb 0.00 in0.0 mm 0.00 in0.0 mm 0.48 in12.2 mm
08:42 PM 39.5°F4.2°C 31.6°F-0.2°C 73% 1.8 mph NE2.9 kmh NE 6.0 mph9.7 kmh 30.22 in1023.4 mb 0.00 in0.0 mm 0.00 in0.0 mm 0.48 in12.2 mm
08:47 PM 39.6°F4.2°C 31.4°F-0.3°C 72% 3.0 mph NNW4.8 kmh NNW 6.0 mph9.7 kmh 30.22 in1023.4 mb 0.00 in0.0 mm 0.00 in0.0 mm 0.48 in12.2 mm
08:53 PM 39.6°F4.2°C 31.7°F-0.2°C 73% Calm Calm 7.5 mph12.1 kmh 30.22 in1023.4 mb 0.00 in0.0 mm 0.00 in0.0 mm 0.48 in12.2 mm
08:58 PM 39.6°F4.2°C 32.1°F0.1°C 74% 1.3 mph WSW2.1 kmh WSW 7.5 mph12.1 kmh 30.22 in1023.4 mb 0.00 in0.0 mm 0.00 in0.0 mm 0.48 in12.2 mm
09:03 PM 39.5°F4.2°C 31.6°F-0.2°C 73% 1.3 mph N2.1 kmh N 7.5 mph12.1 kmh 30.22 in1023.4 mb 0.00 in0.0 mm 0.00 in0.0 mm 0.48 in12.2 mm
09:08 PM 39.5°F4.2°C 32.3°F0.2°C 75% 1.7 mph W2.7 kmh W 4.5 mph7.2 kmh 30.22 in1023.4 mb 0.00 in0.0 mm 0.00 in0.0 mm 0.48 in12.2 mm
09:13 PM 39.5°F4.2°C 32.6°F0.3°C 76% 2.7 mph SW4.3 kmh SW 6.0 mph9.7 kmh 30.22 in1023.4 mb 0.00 in0.0 mm 0.00 in0.0 mm 0.48 in12.2 mm
09:18 PM 39.3°F4.1°C 31.8°F-0.1°C 74% 1.9 mph WNW3.1 kmh WNW 6.0 mph9.7 kmh 30.22 in1023.4 mb 0.00 in0.0 mm 0.00 in0.0 mm 0.48 in12.2 mm
09:23 PM 39.3°F4.1°C 31.8°F-0.1°C 74% 2.5 mph W4.0 kmh W 6.0 mph9.7 kmh 30.23 in1023.7 mb 0.00 in0.0 mm 0.00 in0.0 mm 0.48 in12.2 mm
09:28 PM 39.2°F4.0°C 31.0°F-0.6°C 72% 1.7 mph W2.7 kmh W 6.0 mph9.7 kmh 30.23 in1023.7 mb 0.00 in0.0 mm 0.00 in0.0 mm 0.48 in12.2 mm
09:33 PM 39.1°F3.9°C 30.9°F-0.6°C 72% 1.7 mph W2.7 kmh W 6.0 mph9.7 kmh 30.23 in1023.7 mb 0.00 in0.0 mm 0.00 in0.0 mm 0.48 in12.2 mm
09:38 PM 39.0°F3.9°C 31.1°F-0.5°C 73% 1.4 mph WNW2.3 kmh WNW 6.0 mph9.7 kmh 30.23 in1023.7 mb 0.00 in0.0 mm 0.00 in0.0 mm 0.48 in12.2 mm
09:43 PM 38.9°F3.8°C 30.7°F-0.7°C 72% 1.3 mph WSW2.1 kmh WSW 6.0 mph9.7 kmh 30.23 in1023.7 mb 0.00 in0.0 mm 0.00 in0.0 mm 0.48 in12.2 mm
09:48 PM 38.8°F3.8°C 30.3°F-0.9°C 71% 1.3 mph WSW2.1 kmh WSW 6.0 mph9.7 kmh 30.23 in1023.7 mb 0.00 in0.0 mm 0.00 in0.0 mm 0.48 in12.2 mm
09:53 PM 38.7°F3.7°C 30.2°F-1.0°C 71% 1.3 mph SSW2.1 kmh SSW 6.0 mph9.7 kmh 30.23 in1023.7 mb 0.00 in0.0 mm 0.00 in0.0 mm 0.48 in12.2 mm
09:58 PM 38.6°F3.7°C 30.1°F-1.1°C 71% 3.3 mph NNW5.3 kmh NNW 10.5 mph16.9 kmh 30.23 in1023.7 mb 0.00 in0.0 mm 0.00 in0.0 mm 0.48 in12.2 mm
10:03 PM 38.4°F3.6°C 29.9°F-1.2°C 71% 1.7 mph SW2.7 kmh SW 10.5 mph16.9 kmh 30.24 in1024.0 mb 0.00 in0.0 mm 0.00 in0.0 mm 0.48 in12.2 mm
10:08 PM 38.2°F3.4°C 30.0°F-1.1°C 72% 1.3 mph WSW2.1 kmh WSW 9.0 mph14.5 kmh 30.24 in1024.0 mb 0.00 in0.0 mm 0.00 in0.0 mm 0.48 in12.2 mm
10:13 PM 38.0°F3.3°C 29.5°F-1.4°C 71% 1.3 mph SE2.1 kmh SE 9.0 mph14.5 kmh 30.25 in1024.4 mb 0.00 in0.0 mm 0.00 in0.0 mm 0.48 in12.2 mm
10:18 PM 37.9°F3.3°C 29.7°F-1.3°C 72% 2.5 mph NW4.0 kmh NW 4.5 mph7.2 kmh 30.25 in1024.4 mb 0.00 in0.0 mm 0.00 in0.0 mm 0.48 in12.2 mm
10:23 PM 38.0°F3.3°C 28.5°F-1.9°C 68% 7.6 mph N12.2 kmh N 15.0 mph24.1 kmh 30.25 in1024.4 mb 0.00 in0.0 mm 0.00 in0.0 mm 0.48 in12.2 mm
10:28 PM 38.1°F3.4°C 29.3°F-1.5°C 70% 2.3 mph NW3.7 kmh NW 15.0 mph24.1 kmh 30.25 in1024.4 mb 0.00 in0.0 mm 0.00 in0.0 mm 0.48 in12.2 mm
10:33 PM 38.0°F3.3°C 28.8°F-1.8°C 69% 1.6 mph N2.6 kmh N 15.0 mph24.1 kmh 30.25 in1024.4 mb 0.00 in0.0 mm 0.00 in0.0 mm 0.48 in12.2 mm
10:38 PM 38.0°F3.3°C 29.5°F-1.4°C 71% 1.3 mph NE2.1 kmh NE 15.0 mph24.1 kmh 30.25 in1024.4 mb 0.00 in0.0 mm 0.00 in0.0 mm 0.48 in12.2 mm
10:43 PM 37.9°F3.3°C 29.4°F-1.4°C 71% 1.7 mph NW2.7 kmh NW 9.0 mph14.5 kmh 30.25 in1024.4 mb 0.00 in0.0 mm 0.00 in0.0 mm 0.48 in12.2 mm
10:48 PM 37.8°F3.2°C 29.3°F-1.5°C 71% 1.3 mph WNW2.1 kmh WNW 9.0 mph14.5 kmh 30.25 in1024.4 mb 0.00 in0.0 mm 0.00 in0.0 mm 0.48 in12.2 mm
10:53 PM 37.6°F3.1°C 29.8°F-1.2°C 73% Calm Calm 7.5 mph12.1 kmh 30.25 in1024.4 mb 0.00 in0.0 mm 0.00 in0.0 mm 0.48 in12.2 mm
10:58 PM 37.3°F2.9°C 29.2°F-1.6°C 72% Calm Calm 7.5 mph12.1 kmh 30.25 in1024.4 mb 0.00 in0.0 mm 0.00 in0.0 mm 0.48 in12.2 mm
11:03 PM 37.1°F2.8°C 29.0°F-1.7°C 72% 1.3 mph NW2.1 kmh NW 6.0 mph9.7 kmh 30.25 in1024.4 mb 0.00 in0.0 mm 0.00 in0.0 mm 0.48 in12.2 mm
11:08 PM 36.8°F2.7°C 28.7°F-1.8°C 72% 1.3 mph N2.1 kmh N 3.0 mph4.8 kmh 30.25 in1024.4 mb 0.00 in0.0 mm 0.00 in0.0 mm 0.48 in12.2 mm
11:13 PM 36.4°F2.4°C 29.3°F-1.5°C 75% 1.3 mph N2.1 kmh N 3.0 mph4.8 kmh 30.25 in1024.4 mb 0.00 in0.0 mm 0.00 in0.0 mm 0.48 in12.2 mm
11:18 PM 36.1°F2.3°C 29.9°F-1.2°C 78% Calm Calm 1.5 mph2.4 kmh 30.25 in1024.4 mb 0.00 in0.0 mm 0.00 in0.0 mm 0.48 in12.2 mm
11:23 PM 35.4°F1.9°C 29.6°F-1.3°C 79% Calm Calm 1.5 mph2.4 kmh 30.25 in1024.4 mb 0.00 in0.0 mm 0.00 in0.0 mm 0.48 in12.2 mm
11:28 PM 34.6°F1.4°C 29.4°F-1.4°C 81% Calm Calm 1.5 mph2.4 kmh 30.25 in1024.4 mb 0.00 in0.0 mm 0.00 in0.0 mm 0.48 in12.2 mm
11:33 PM 34.0°F1.1°C 29.1°F-1.6°C 82% Calm Calm -- 30.25 in1024.4 mb 0.00 in0.0 mm 0.00 in0.0 mm 0.48 in12.2 mm
11:38 PM 33.6°F0.9°C 29.0°F-1.7°C 83% Calm Calm -- 30.25 in1024.4 mb 0.00 in0.0 mm 0.00 in0.0 mm 0.48 in12.2 mm
11:43 PM 33.1°F0.6°C 28.8°F-1.8°C 84% Calm Calm -- 30.25 in1024.4 mb 0.00 in0.0 mm 0.00 in0.0 mm 0.48 in12.2 mm
11:48 PM 32.8°F0.4°C 28.8°F-1.8°C 85% Calm Calm -- 30.26 in1024.7 mb 0.00 in0.0 mm 0.00 in0.0 mm 0.48 in12.2 mm
11:53 PM 32.6°F0.3°C 28.8°F-1.8°C 86% 1.3 mph N2.1 kmh N 1.5 mph2.4 kmh 30.26 in1024.7 mb 0.00 in0.0 mm 0.00 in0.0 mm 0.48 in12.2 mm
11:58 PM 32.4°F0.2°C 28.9°F-1.7°C 87% Calm Calm 1.5 mph2.4 kmh 30.26 in1024.7 mb 0.00 in0.0 mm 0.00 in0.0 mm 0.48 in12.2 mm